sensor_id;sensor_type;location;lat;lon;timestamp;pressure;altitude;pressure_sealevel;temperature;humidity
49342;BME280;35210;41.606;-87.602;2023-09-30T00:01:34;99963.13;;;23.69;83.42
49342;BME280;35210;41.606;-87.602;2023-09-30T00:04:02;99959.16;;;23.65;83.12
49342;BME280;35210;41.606;-87.602;2023-09-30T00:06:31;99957.09;;;23.67;83.30
49342;BME280;35210;41.606;-87.602;2023-09-30T00:08:59;99962.88;;;23.64;83.57
49342;BME280;35210;41.606;-87.602;2023-09-30T00:11:27;99961.19;;;23.63;83.57
49342;BME280;35210;41.606;-87.602;2023-09-30T00:13:55;99962.22;;;23.62;84.01
49342;BME280;35210;41.606;-87.602;2023-09-30T00:16:25;99963.06;;;23.62;83.96
49342;BME280;35210;41.606;-87.602;2023-09-30T00:18:53;99967.88;;;23.67;83.87
49342;BME280;35210;41.606;-87.602;2023-09-30T00:21:22;99970.78;;;23.65;83.81
49342;BME280;35210;41.606;-87.602;2023-09-30T00:23:51;99964.81;;;23.70;83.52
49342;BME280;35210;41.606;-87.602;2023-09-30T00:26:22;99972.63;;;23.65;83.55
49342;BME280;35210;41.606;-87.602;2023-09-30T00:28:51;99963.25;;;23.61;83.83
49342;BME280;35210;41.606;-87.602;2023-09-30T00:31:19;99968.63;;;23.61;83.59
49342;BME280;35210;41.606;-87.602;2023-09-30T00:33:48;99975.13;;;23.51;83.92
49342;BME280;35210;41.606;-87.602;2023-09-30T00:36:16;99967.41;;;23.48;84.49
49342;BME280;35210;41.606;-87.602;2023-09-30T00:38:44;99971.69;;;23.43;84.43
49342;BME280;35210;41.606;-87.602;2023-09-30T00:41:13;99966.50;;;23.41;84.63
49342;BME280;35210;41.606;-87.602;2023-09-30T00:43:41;99974.97;;;23.38;84.67
49342;BME280;35210;41.606;-87.602;2023-09-30T00:46:17;99975.97;;;23.37;84.68
49342;BME280;35210;41.606;-87.602;2023-09-30T00:48:50;99972.63;;;23.35;85.11
49342;BME280;35210;41.606;-87.602;2023-09-30T00:51:20;99970.31;;;23.32;85.24
49342;BME280;35210;41.606;-87.602;2023-09-30T00:53:49;99975.06;;;23.30;85.03
49342;BME280;35210;41.606;-87.602;2023-09-30T00:56:18;99976.47;;;23.26;85.34
49342;BME280;35210;41.606;-87.602;2023-09-30T00:58:48;99976.81;;;23.23;85.88
49342;BME280;35210;41.606;-87.602;2023-09-30T01:01:17;99976.81;;;23.23;85.72
49342;BME280;35210;41.606;-87.602;2023-09-30T01:03:46;99982.22;;;23.23;85.38
49342;BME280;35210;41.606;-87.602;2023-09-30T01:06:16;99975.72;;;23.17;85.67
49342;BME280;35210;41.606;-87.602;2023-09-30T01:08:45;99976.28;;;23.13;85.93
49342;BME280;35210;41.606;-87.602;2023-09-30T01:11:13;99975.34;;;23.06;86.06
49342;BME280;35210;41.606;-87.602;2023-09-30T01:13:41;99980.06;;;23.04;86.28
49342;BME280;35210;41.606;-87.602;2023-09-30T01:16:10;99984.75;;;22.95;86.89
49342;BME280;35210;41.606;-87.602;2023-09-30T01:18:40;99984.28;;;22.91;87.08
49342;BME280;35210;41.606;-87.602;2023-09-30T01:21:09;99977.59;;;22.87;87.46
49342;BME280;35210;41.606;-87.602;2023-09-30T01:23:40;99990.38;;;22.85;87.73
49342;BME280;35210;41.606;-87.602;2023-09-30T01:26:11;99994.38;;;22.89;87.82
49342;BME280;35210;41.606;-87.602;2023-09-30T01:28:40;99994.56;;;22.88;88.05
49342;BME280;35210;41.606;-87.602;2023-09-30T01:31:08;99987.69;;;22.85;87.82
49342;BME280;35210;41.606;-87.602;2023-09-30T01:33:36;99993.28;;;22.84;88.09
49342;BME280;35210;41.606;-87.602;2023-09-30T01:36:05;99991.41;;;22.84;87.82
49342;BME280;35210;41.606;-87.602;2023-09-30T01:38:34;99991.41;;;22.84;88.12
49342;BME280;35210;41.606;-87.602;2023-09-30T01:41:04;100001.53;;;22.82;88.11
49342;BME280;35210;41.606;-87.602;2023-09-30T01:43:32;100000.19;;;22.78;87.98
49342;BME280;35210;41.606;-87.602;2023-09-30T01:46:01;99990.44;;;22.77;87.86
49342;BME280;35210;41.606;-87.602;2023-09-30T01:48:31;100004.25;;;22.74;88.27
49342;BME280;35210;41.606;-87.602;2023-09-30T01:50:58;100000.09;;;22.72;88.27
49342;BME280;35210;41.606;-87.602;2023-09-30T01:53:26;100004.25;;;22.74;88.16
49342;BME280;35210;41.606;-87.602;2023-09-30T01:55:54;99999.91;;;22.73;88.33
49342;BME280;35210;41.606;-87.602;2023-09-30T01:58:25;99996.44;;;22.65;88.53
49342;BME280;35210;41.606;-87.602;2023-09-30T02:00:53;99988.38;;;22.65;88.96
49342;BME280;35210;41.606;-87.602;2023-09-30T02:03:21;99987.06;;;22.60;88.88
49342;BME280;35210;41.606;-87.602;2023-09-30T02:05:49;99990.28;;;22.56;88.64
49342;BME280;35210;41.606;-87.602;2023-09-30T02:08:17;100000.22;;;22.55;88.21
49342;BME280;35210;41.606;-87.602;2023-09-30T02:10:45;99998.91;;;22.51;88.31
49342;BME280;35210;41.606;-87.602;2023-09-30T02:13:14;100000.47;;;22.46;88.34
49342;BME280;35210;41.606;-87.602;2023-09-30T02:15:44;100005.84;;;22.46;88.76
49342;BME280;35210;41.606;-87.602;2023-09-30T02:18:12;100000.84;;;22.43;87.39
49342;BME280;35210;41.606;-87.602;2023-09-30T02:20:40;100003.22;;;22.38;86.85
49342;BME280;35210;41.606;-87.602;2023-09-30T02:23:10;100002.28;;;22.30;87.32
49342;BME280;35210;41.606;-87.602;2023-09-30T02:25:38;100001.63;;;22.28;88.27
49342;BME280;35210;41.606;-87.602;2023-09-30T02:28:06;100004.81;;;22.09;87.72
49342;BME280;35210;41.606;-87.602;2023-09-30T02:30:35;100011.84;;;22.10;88.35
49342;BME280;35210;41.606;-87.602;2023-09-30T02:33:05;100007.69;;;22.08;88.51
49342;BME280;35210;41.606;-87.602;2023-09-30T02:35:34;100011.91;;;22.02;88.56
49342;BME280;35210;41.606;-87.602;2023-09-30T02:38:05;100015.09;;;21.97;88.17
49342;BME280;35210;41.606;-87.602;2023-09-30T02:40:33;100006.91;;;21.91;88.49
49342;BME280;35210;41.606;-87.602;2023-09-30T02:43:01;100003.19;;;21.92;87.85
49342;BME280;35210;41.606;-87.602;2023-09-30T02:45:29;100003.56;;;21.89;88.61
49342;BME280;35210;41.606;-87.602;2023-09-30T02:47:57;100007.59;;;21.85;88.49
49342;BME280;35210;41.606;-87.602;2023-09-30T02:50:27;99998.88;;;21.83;89.18
49342;BME280;35210;41.606;-87.602;2023-09-30T02:52:55;100001.75;;;21.81;89.26
49342;BME280;35210;41.606;-87.602;2023-09-30T02:55:23;99996.19;;;21.83;89.45
49342;BME280;35210;41.606;-87.602;2023-09-30T02:57:51;99998.88;;;21.83;89.57
49342;BME280;35210;41.606;-87.602;2023-09-30T03:00:19;99998.34;;;21.87;89.58
49342;BME280;35210;41.606;-87.602;2023-09-30T03:02:52;100003.19;;;21.92;89.90
49342;BME280;35210;41.606;-87.602;2023-09-30T03:05:21;99996.84;;;21.85;89.10
49342;BME280;35210;41.606;-87.602;2023-09-30T03:07:51;99995.31;;;21.90;88.96
49342;BME280;35210;41.606;-87.602;2023-09-30T03:10:21;99994.81;;;21.87;88.92
49342;BME280;35210;41.606;-87.602;2023-09-30T03:12:50;99995.19;;;21.84;87.90
49342;BME280;35210;41.606;-87.602;2023-09-30T03:15:18;99995.53;;;21.81;88.30
49342;BME280;35210;41.606;-87.602;2023-09-30T03:17:46;99998.41;;;21.79;88.71
49342;BME280;35210;41.606;-87.602;2023-09-30T03:20:14;99990.34;;;21.79;88.85
49342;BME280;35210;41.606;-87.602;2023-09-30T03:22:45;99992.72;;;21.74;88.14
49342;BME280;35210;41.606;-87.602;2023-09-30T03:25:17;99991.22;;;21.72;87.97
49342;BME280;35210;41.606;-87.602;2023-09-30T03:27:45;100001.97;;;21.72;88.09
49342;BME280;35210;41.606;-87.602;2023-09-30T03:30:14;99998.78;;;21.68;87.81
49342;BME280;35210;41.606;-87.602;2023-09-30T03:32:43;99998.66;;;21.61;88.05
49342;BME280;35210;41.606;-87.602;2023-09-30T03:35:11;100000.00;;;21.57;88.33
49342;BME280;35210;41.606;-87.602;2023-09-30T03:37:43;99992.13;;;21.56;88.22
49342;BME280;35210;41.606;-87.602;2023-09-30T03:40:12;99994.19;;;21.54;88.12
49342;BME280;35210;41.606;-87.602;2023-09-30T03:42:42;99997.41;;;21.49;87.76
49342;BME280;35210;41.606;-87.602;2023-09-30T03:45:10;100000.44;;;21.46;88.25
49342;BME280;35210;41.606;-87.602;2023-09-30T03:47:41;100000.28;;;21.40;88.06
49342;BME280;35210;41.606;-87.602;2023-09-30T03:50:10;100005.50;;;21.33;88.48
49342;BME280;35210;41.606;-87.602;2023-09-30T03:52:41;99994.78;;;21.25;88.55
49342;BME280;35210;41.606;-87.602;2023-09-30T03:55:10;100007.88;;;21.20;89.13
49342;BME280;35210;41.606;-87.602;2023-09-30T03:57:42;99993.94;;;21.16;89.34
49342;BME280;35210;41.606;-87.602;2023-09-30T04:00:12;99994.13;;;21.15;89.70
49342;BME280;35210;41.606;-87.602;2023-09-30T04:02:45;100002.34;;;21.13;89.88
49342;BME280;35210;41.606;-87.602;2023-09-30T04:05:15;99992.44;;;21.14;89.79
49342;BME280;35210;41.606;-87.602;2023-09-30T04:07:45;99996.81;;;21.15;90.06
49342;BME280;35210;41.606;-87.602;2023-09-30T04:10:13;99999.50;;;21.15;89.82
49342;BME280;35210;41.606;-87.602;2023-09-30T04:12:43;99990.78;;;21.13;90.01
49342;BME280;35210;41.606;-87.602;2023-09-30T04:15:11;99988.09;;;21.05;89.83
49342;BME280;35210;41.606;-87.602;2023-09-30T04:17:39;99985.94;;;21.00;90.10
49342;BME280;35210;41.606;-87.602;2023-09-30T04:20:08;99990.81;;;20.96;90.20
49342;BME280;35210;41.606;-87.602;2023-09-30T04:22:42;99992.34;;;20.91;90.59
49342;BME280;35210;41.606;-87.602;2023-09-30T04:25:14;99989.66;;;20.91;90.73
49342;BME280;35210;41.606;-87.602;2023-09-30T04:27:44;99995.00;;;20.91;90.92
49342;BME280;35210;41.606;-87.602;2023-09-30T04:30:14;99997.53;;;20.92;90.96
49342;BME280;35210;41.606;-87.602;2023-09-30T04:32:42;100000.22;;;20.92;90.89
49342;BME280;35210;41.606;-87.602;2023-09-30T04:35:11;100004.75;;;20.92;90.86
49342;BME280;35210;41.606;-87.602;2023-09-30T04:37:39;100006.75;;;20.90;90.82
49342;BME280;35210;41.606;-87.602;2023-09-30T04:40:08;100011.28;;;20.89;90.81
49342;BME280;35210;41.606;-87.602;2023-09-30T04:42:41;100011.47;;;20.88;90.97
49342;BME280;35210;41.606;-87.602;2023-09-30T04:45:12;100013.47;;;20.86;91.20
49342;BME280;35210;41.606;-87.602;2023-09-30T04:47:42;100018.34;;;20.82;91.52
49342;BME280;35210;41.606;-87.602;2023-09-30T04:50:11;100015.19;;;20.79;91.44
49342;BME280;35210;41.606;-87.602;2023-09-30T04:52:42;100020.06;;;20.75;91.46
49342;BME280;35210;41.606;-87.602;2023-09-30T04:55:11;100021.25;;;20.73;91.71
49342;BME280;35210;41.606;-87.602;2023-09-30T04:57:42;100026.09;;;20.69;92.04
49342;BME280;35210;41.606;-87.602;2023-09-30T05:00:15;100031.81;;;20.66;92.31
49342;BME280;35210;41.606;-87.602;2023-09-30T05:02:43;100040.19;;;20.63;92.44
49342;BME280;35210;41.606;-87.602;2023-09-30T05:05:12;100043.22;;;20.60;92.46
49342;BME280;35210;41.606;-87.602;2023-09-30T05:07:41;100039.84;;;20.58;92.41
49342;BME280;35210;41.606;-87.602;2023-09-30T05:10:10;100035.84;;;20.54;92.63
49342;BME280;35210;41.606;-87.602;2023-09-30T05:12:42;100040.84;;;20.49;92.97
49342;BME280;35210;41.606;-87.602;2023-09-30T05:15:13;100038.34;;;20.47;93.14
49342;BME280;35210;41.606;-87.602;2023-09-30T05:17:42;100036.84;;;20.45;93.05
49342;BME280;35210;41.606;-87.602;2023-09-30T05:20:11;100033.66;;;20.41;93.06
49342;BME280;35210;41.606;-87.602;2023-09-30T05:22:40;100034.47;;;20.42;92.97
49342;BME280;35210;41.606;-87.602;2023-09-30T05:25:11;100031.13;;;20.40;92.93
49342;BME280;35210;41.606;-87.602;2023-09-30T05:27:39;100025.56;;;20.33;92.79
49342;BME280;35210;41.606;-87.602;2023-09-30T05:30:09;100029.41;;;20.30;92.87
49342;BME280;35210;41.606;-87.602;2023-09-30T05:32:39;100042.16;;;20.28;93.09
49342;BME280;35210;41.606;-87.602;2023-09-30T05:35:08;100039.78;;;20.25;93.40
49342;BME280;35210;41.606;-87.602;2023-09-30T05:37:39;100035.09;;;20.19;93.57
49342;BME280;35210;41.606;-87.602;2023-09-30T05:40:08;100030.06;;;20.16;93.82
49342;BME280;35210;41.606;-87.602;2023-09-30T05:42:46;100028.38;;;20.15;93.93
49342;BME280;35210;41.606;-87.602;2023-09-30T05:45:14;100020.66;;;20.12;94.10
49342;BME280;35210;41.606;-87.602;2023-09-30T05:47:44;100019.81;;;20.12;94.38
49342;BME280;35210;41.606;-87.602;2023-09-30T05:50:14;100012.78;;;20.11;94.04
49342;BME280;35210;41.606;-87.602;2023-09-30T05:52:43;100014.13;;;20.07;93.89
49342;BME280;35210;41.606;-87.602;2023-09-30T05:55:11;100009.13;;;20.04;94.22
49342;BME280;35210;41.606;-87.602;2023-09-30T05:57:39;100012.81;;;20.02;94.37
49342;BME280;35210;41.606;-87.602;2023-09-30T06:00:12;100013.63;;;20.03;94.47
49342;BME280;35210;41.606;-87.602;2023-09-30T06:02:48;100013.81;;;20.01;94.45
49342;BME280;35210;41.606;-87.602;2023-09-30T06:05:18;100026.69;;;19.98;94.55
49342;BME280;35210;41.606;-87.602;2023-09-30T06:07:48;100016.31;;;19.95;94.43
49342;BME280;35210;41.606;-87.602;2023-09-30T06:10:16;100020.00;;;19.94;94.46
49342;BME280;35210;41.606;-87.602;2023-09-30T06:12:46;100029.88;;;19.93;94.93
49342;BME280;35210;41.606;-87.602;2023-09-30T06:15:14;100022.00;;;19.92;95.05
49342;BME280;35210;41.606;-87.602;2023-09-30T06:17:50;100021.47;;;19.88;94.90
49342;BME280;35210;41.606;-87.602;2023-09-30T06:20:18;100026.84;;;19.88;95.25
49342;BME280;35210;41.606;-87.602;2023-09-30T06:22:48;100026.31;;;19.85;95.12
49342;BME280;35210;41.606;-87.602;2023-09-30T06:25:17;100032.00;;;19.82;95.18
49342;BME280;35210;41.606;-87.602;2023-09-30T06:27:46;100029.16;;;19.83;95.04
49342;BME280;35210;41.606;-87.602;2023-09-30T06:30:16;100035.38;;;19.84;95.21
49342;BME280;35210;41.606;-87.602;2023-09-30T06:32:45;100032.69;;;19.84;95.19
49342;BME280;35210;41.606;-87.602;2023-09-30T06:35:15;100023.97;;;19.82;95.24
49342;BME280;35210;41.606;-87.602;2023-09-30T06:37:43;100019.78;;;19.79;95.06
49342;BME280;35210;41.606;-87.602;2023-09-30T06:40:12;100027.31;;;19.76;94.87
49342;BME280;35210;41.606;-87.602;2023-09-30T06:42:40;100015.06;;;19.73;94.71
49342;BME280;35210;41.606;-87.602;2023-09-30T06:45:09;100009.00;;;19.63;95.25
49342;BME280;35210;41.606;-87.602;2023-09-30T06:47:40;100009.47;;;19.58;95.47
49342;BME280;35210;41.606;-87.602;2023-09-30T06:50:10;100014.31;;;19.55;95.85
49342;BME280;35210;41.606;-87.602;2023-09-30T06:52:41;100001.72;;;19.47;96.50
49342;BME280;35210;41.606;-87.602;2023-09-30T06:55:11;100007.38;;;19.44;96.63
49342;BME280;35210;41.606;-87.602;2023-09-30T06:57:42;100005.72;;;19.43;96.47
49342;BME280;35210;41.606;-87.602;2023-09-30T07:00:12;100004.19;;;19.41;96.61
49342;BME280;35210;41.606;-87.602;2023-09-30T07:02:41;100005.03;;;19.41;96.69
49342;BME280;35210;41.606;-87.602;2023-09-30T07:05:11;100004.66;;;19.36;96.62
49342;BME280;35210;41.606;-87.602;2023-09-30T07:07:42;99997.97;;;19.32;96.86
49342;BME280;35210;41.606;-87.602;2023-09-30T07:10:11;99999.00;;;19.31;96.71
49342;BME280;35210;41.606;-87.602;2023-09-30T07:12:39;100005.13;;;19.23;97.27
49342;BME280;35210;41.606;-87.602;2023-09-30T07:15:08;99996.22;;;19.15;97.89
49342;BME280;35210;41.606;-87.602;2023-09-30T07:17:36;99993.19;;;19.10;98.02
49342;BME280;35210;41.606;-87.602;2023-09-30T07:20:06;99991.50;;;19.09;98.31
49342;BME280;35210;41.606;-87.602;2023-09-30T07:22:36;99989.47;;;19.02;98.65
49342;BME280;35210;41.606;-87.602;2023-09-30T07:25:06;99986.38;;;18.89;99.74
49342;BME280;35210;41.606;-87.602;2023-09-30T07:27:34;99985.69;;;18.87;99.69
49342;BME280;35210;41.606;-87.602;2023-09-30T07:30:03;99986.69;;;18.86;100.00
49342;BME280;35210;41.606;-87.602;2023-09-30T07:32:32;99987.31;;;18.80;100.00
49342;BME280;35210;41.606;-87.602;2023-09-30T07:35:01;99992.34;;;18.83;100.00
49342;BME280;35210;41.606;-87.602;2023-09-30T07:37:29;99989.22;;;18.88;100.00
49342;BME280;35210;41.606;-87.602;2023-09-30T07:39:58;99993.25;;;18.92;100.00
49342;BME280;35210;41.606;-87.602;2023-09-30T07:42:28;99984.38;;;18.91;99.94
49342;BME280;35210;41.606;-87.602;2023-09-30T07:44:56;99988.25;;;18.97;99.84
49342;BME280;35210;41.606;-87.602;2023-09-30T07:47:24;99988.78;;;19.00;99.86
49342;BME280;35210;41.606;-87.602;2023-09-30T07:49:52;99994.81;;;19.02;99.75
49342;BME280;35210;41.606;-87.602;2023-09-30T07:52:20;99994.50;;;19.06;99.54
49342;BME280;35210;41.606;-87.602;2023-09-30T07:54:48;99998.53;;;19.10;99.07
49342;BME280;35210;41.606;-87.602;2023-09-30T07:57:16;99998.53;;;19.10;98.68
49342;BME280;35210;41.606;-87.602;2023-09-30T07:59:46;100000.53;;;19.08;99.19
49342;BME280;35210;41.606;-87.602;2023-09-30T08:02:15;99994.88;;;19.11;99.03
49342;BME280;35210;41.606;-87.602;2023-09-30T08:04:43;100004.72;;;19.10;99.01
49342;BME280;35210;41.606;-87.602;2023-09-30T08:07:11;100000.22;;;19.11;99.31
49342;BME280;35210;41.606;-87.602;2023-09-30T08:09:39;100000.22;;;19.11;99.20
49342;BME280;35210;41.606;-87.602;2023-09-30T08:12:08;99999.91;;;19.14;98.89
49342;BME280;35210;41.606;-87.602;2023-09-30T08:14:37;100002.09;;;19.18;98.97
49342;BME280;35210;41.606;-87.602;2023-09-30T08:17:06;99998.59;;;19.18;98.81
49342;BME280;35210;41.606;-87.602;2023-09-30T08:19:34;99999.59;;;19.17;98.72
49342;BME280;35210;41.606;-87.602;2023-09-30T08:22:02;99997.59;;;19.19;98.75
49342;BME280;35210;41.606;-87.602;2023-09-30T08:24:31;99995.59;;;19.21;98.46
49342;BME280;35210;41.606;-87.602;2023-09-30T08:26:59;99995.28;;;19.24;98.57
49342;BME280;35210;41.606;-87.602;2023-09-30T08:29:27;99998.63;;;19.26;98.38
49342;BME280;35210;41.606;-87.602;2023-09-30T08:31:55;99991.59;;;19.25;98.15
49342;BME280;35210;41.606;-87.602;2023-09-30T08:34:25;99994.59;;;19.22;97.97
49342;BME280;35210;41.606;-87.602;2023-09-30T08:36:53;100001.94;;;19.20;98.16
49342;BME280;35210;41.606;-87.602;2023-09-30T08:39:21;99995.91;;;19.18;98.34
49342;BME280;35210;41.606;-87.602;2023-09-30T08:41:50;100003.94;;;19.18;98.62
49342;BME280;35210;41.606;-87.602;2023-09-30T08:44:19;100001.25;;;19.18;98.87
49342;BME280;35210;41.606;-87.602;2023-09-30T08:46:47;100008.63;;;19.16;98.19
49342;BME280;35210;41.606;-87.602;2023-09-30T08:49:18;100006.09;;;19.14;98.67
49342;BME280;35210;41.606;-87.602;2023-09-30T08:51:49;100005.25;;;19.14;98.71
49342;BME280;35210;41.606;-87.602;2023-09-30T08:54:17;100014.13;;;19.14;99.04
49342;BME280;35210;41.606;-87.602;2023-09-30T08:56:48;100012.28;;;19.15;98.74
49342;BME280;35210;41.606;-87.602;2023-09-30T08:59:17;100008.78;;;19.14;98.91
49342;BME280;35210;41.606;-87.602;2023-09-30T09:01:45;100000.75;;;19.14;98.47
49342;BME280;35210;41.606;-87.602;2023-09-30T09:04:14;100015.28;;;19.12;97.77
49342;BME280;35210;41.606;-87.602;2023-09-30T09:06:42;100018.97;;;19.11;98.19
49342;BME280;35210;41.606;-87.602;2023-09-30T09:09:18;100018.59;;;19.06;98.67
49342;BME280;35210;41.606;-87.602;2023-09-30T09:11:48;100022.59;;;19.01;98.87
49342;BME280;35210;41.606;-87.602;2023-09-30T09:14:17;100032.28;;;19.02;98.91
49342;BME280;35210;41.606;-87.602;2023-09-30T09:16:52;100040.31;;;19.02;98.79
49342;BME280;35210;41.606;-87.602;2023-09-30T09:19:20;100036.13;;;19.00;98.61
49342;BME280;35210;41.606;-87.602;2023-09-30T09:21:56;100044.31;;;18.98;98.67
49342;BME280;35210;41.606;-87.602;2023-09-30T09:24:30;100043.47;;;18.98;99.21
49342;BME280;35210;41.606;-87.602;2023-09-30T09:27:08;100045.00;;;19.00;99.08
49342;BME280;35210;41.606;-87.602;2023-09-30T09:29:37;100047.97;;;18.97;99.43
49342;BME280;35210;41.606;-87.602;2023-09-30T09:32:10;100055.00;;;18.98;98.98
49342;BME280;35210;41.606;-87.602;2023-09-30T09:34:38;100057.31;;;18.93;98.85
49342;BME280;35210;41.606;-87.602;2023-09-30T09:37:14;100050.59;;;18.89;99.16
49342;BME280;35210;41.606;-87.602;2023-09-30T09:39:55;100047.06;;;18.89;98.94
49342;BME280;35210;41.606;-87.602;2023-09-30T09:42:28;100050.06;;;18.86;99.15
49342;BME280;35210;41.606;-87.602;2023-09-30T09:44:57;100058.09;;;18.86;99.37
49342;BME280;35210;41.606;-87.602;2023-09-30T09:47:26;100075.00;;;18.86;99.74
49342;BME280;35210;41.606;-87.602;2023-09-30T09:49:58;100084.69;;;18.87;99.60
49342;BME280;35210;41.606;-87.602;2023-09-30T09:52:27;100088.38;;;18.86;99.16
49342;BME280;35210;41.606;-87.602;2023-09-30T09:54:58;100084.69;;;18.87;99.09
49342;BME280;35210;41.606;-87.602;2023-09-30T09:57:28;100091.03;;;18.86;99.05
49342;BME280;35210;41.606;-87.602;2023-09-30T09:59:58;100098.06;;;18.87;99.21
49342;BME280;35210;41.606;-87.602;2023-09-30T10:02:32;100100.75;;;18.87;99.22
49342;BME280;35210;41.606;-87.602;2023-09-30T10:05:02;100098.06;;;18.87;98.86
49342;BME280;35210;41.606;-87.602;2023-09-30T10:07:38;100103.59;;;18.86;98.74
49342;BME280;35210;41.606;-87.602;2023-09-30T10:10:14;100108.09;;;18.85;98.70
49342;BME280;35210;41.606;-87.602;2023-09-30T10:12:43;100102.22;;;18.82;98.78
49342;BME280;35210;41.606;-87.602;2023-09-30T10:15:37;100104.03;;;18.81;98.86
49342;BME280;35210;41.606;-87.602;2023-09-30T10:18:06;100115.06;;;18.78;98.63
49342;BME280;35210;41.606;-87.602;2023-09-30T10:20:39;100111.53;;;18.78;98.93
49342;BME280;35210;41.606;-87.602;2023-09-30T10:23:24;100106.50;;;18.75;99.15
49342;BME280;35210;41.606;-87.602;2023-09-30T10:26:14;100115.38;;;18.75;98.94
49342;BME280;35210;41.606;-87.602;2023-09-30T10:28:44;100110.47;;;18.70;99.03
49342;BME280;35210;41.606;-87.602;2023-09-30T10:31:16;100124.00;;;18.69;99.10
49342;BME280;35210;41.606;-87.602;2023-09-30T10:34:19;100125.84;;;18.68;99.11
49342;BME280;35210;41.606;-87.602;2023-09-30T10:36:49;100116.97;;;18.68;99.16
49342;BME280;35210;41.606;-87.602;2023-09-30T10:39:56;100118.28;;;18.64;99.46
49342;BME280;35210;41.606;-87.602;2023-09-30T10:42:48;100129.97;;;18.63;99.43
49342;BME280;35210;41.606;-87.602;2023-09-30T10:45:45;100138.13;;;18.61;99.39
49342;BME280;35210;41.606;-87.602;2023-09-30T10:48:33;100134.75;;;18.59;99.27
49342;BME280;35210;41.606;-87.602;2023-09-30T10:51:18;100139.97;;;18.61;99.22
49342;BME280;35210;41.606;-87.602;2023-09-30T10:53:48;100150.78;;;18.59;99.24
49342;BME280;35210;41.606;-87.602;2023-09-30T10:56:19;100154.47;;;18.58;99.72
49342;BME280;35210;41.606;-87.602;2023-09-30T10:58:50;100160.00;;;18.57;99.82
49342;BME280;35210;41.606;-87.602;2023-09-30T11:01:20;100161.13;;;18.54;99.69
49342;BME280;35210;41.606;-87.602;2023-09-30T11:03:49;100165.78;;;18.52;99.81
49342;BME280;35210;41.606;-87.602;2023-09-30T11:06:20;100172.97;;;18.52;99.76
49342;BME280;35210;41.606;-87.602;2023-09-30T11:08:52;100170.31;;;18.52;99.98
49342;BME280;35210;41.606;-87.602;2023-09-30T11:11:33;100172.28;;;18.50;99.76
49342;BME280;35210;41.606;-87.602;2023-09-30T11:14:03;100181.00;;;18.52;99.99
49342;BME280;35210;41.606;-87.602;2023-09-30T11:16:41;100177.78;;;18.48;99.56
49342;BME280;35210;41.606;-87.602;2023-09-30T11:19:09;100181.59;;;18.46;99.77
49342;BME280;35210;41.606;-87.602;2023-09-30T11:21:38;100184.28;;;18.46;99.84
49342;BME280;35210;41.606;-87.602;2023-09-30T11:24:07;100182.44;;;18.46;99.80
49342;BME280;35210;41.606;-87.602;2023-09-30T11:26:35;100179.06;;;18.44;99.69
49342;BME280;35210;41.606;-87.602;2023-09-30T11:29:09;100189.91;;;18.43;100.00
49342;BME280;35210;41.606;-87.602;2023-09-30T11:31:39;100183.88;;;18.41;100.00
49342;BME280;35210;41.606;-87.602;2023-09-30T11:34:09;100191.06;;;18.40;99.90
49342;BME280;35210;41.606;-87.602;2023-09-30T11:36:39;100187.53;;;18.39;100.00
49342;BME280;35210;41.606;-87.602;2023-09-30T11:39:09;100190.91;;;18.42;99.94
49342;BME280;35210;41.606;-87.602;2023-09-30T11:41:40;100197.09;;;18.42;100.00
49342;BME280;35210;41.606;-87.602;2023-09-30T11:44:11;100195.41;;;18.41;100.00
49342;BME280;35210;41.606;-87.602;2023-09-30T11:46:48;100200.22;;;18.37;100.00
49342;BME280;35210;41.606;-87.602;2023-09-30T11:49:26;100211.06;;;18.36;100.00
49342;BME280;35210;41.606;-87.602;2023-09-30T11:51:55;100207.41;;;18.37;100.00
49342;BME280;35210;41.606;-87.602;2023-09-30T11:54:32;100209.25;;;18.36;100.00
49342;BME280;35210;41.606;-87.602;2023-09-30T11:57:01;100211.22;;;18.34;100.00
49342;BME280;35210;41.606;-87.602;2023-09-30T11:59:31;100214.34;;;18.30;100.00
49342;BME280;35210;41.606;-87.602;2023-09-30T12:01:59;100215.19;;;18.30;100.00
49342;BME280;35210;41.606;-87.602;2023-09-30T12:04:27;100210.13;;;18.27;100.00
49342;BME280;35210;41.606;-87.602;2023-09-30T12:06:55;100212.50;;;18.30;100.00
49342;BME280;35210;41.606;-87.602;2023-09-30T12:09:25;100224.47;;;18.26;100.00
49342;BME280;35210;41.606;-87.602;2023-09-30T12:11:54;100233.63;;;18.24;100.00
49342;BME280;35210;41.606;-87.602;2023-09-30T12:14:24;100238.84;;;18.25;100.00
49342;BME280;35210;41.606;-87.602;2023-09-30T12:16:54;100238.16;;;18.23;100.00
49342;BME280;35210;41.606;-87.602;2023-09-30T12:19:22;100239.13;;;18.22;100.00
49342;BME280;35210;41.606;-87.602;2023-09-30T12:21:52;100238.84;;;18.25;100.00
49342;BME280;35210;41.606;-87.602;2023-09-30T12:24:20;100240.22;;;18.29;100.00
49342;BME280;35210;41.606;-87.602;2023-09-30T12:26:50;100253.59;;;18.29;100.00
49342;BME280;35210;41.606;-87.602;2023-09-30T12:29:20;100254.28;;;18.31;100.00
49342;BME280;35210;41.606;-87.602;2023-09-30T12:31:53;100252.31;;;18.33;100.00
49342;BME280;35210;41.606;-87.602;2023-09-30T12:34:22;100249.25;;;18.28;100.00
49342;BME280;35210;41.606;-87.602;2023-09-30T12:36:53;100250.34;;;18.35;100.00
49342;BME280;35210;41.606;-87.602;2023-09-30T12:39:22;100240.63;;;18.34;100.00
49342;BME280;35210;41.606;-87.602;2023-09-30T12:41:56;100252.75;;;18.29;100.00
49342;BME280;35210;41.606;-87.602;2023-09-30T12:44:24;100250.66;;;18.23;100.00
49342;BME280;35210;41.606;-87.602;2023-09-30T12:46:55;100251.22;;;18.26;100.00
49342;BME280;35210;41.606;-87.602;2023-09-30T12:49:25;100254.44;;;18.30;100.00